Arenzville, Illinois
Current Conditions -  °F | °C
As of 5:55 AM on Thursday 27 Nov 2014 (Local Time) from KIJX Reporting Station
Haze Haze  
Wind Chill: 20°   Ceiling: 2000
Heat Index: 29°   Visibility: 5mi
Dew Point: 25°   Wind: 10mph
Humidity: 84%   Direction: 300°WNW
Pressure: 30.38"   Gusts: NA
Location:  39.88°N, 90.37°W
Report Text: KIJX 271155Z AUTO 30009KT 5SM HZ OVC020 M02/M04 A3038 RMK AO2 T10171041 11015 21061
Loading
Personal Weather Stations






























Interactive Weather Map New forecast layout! Learn more

10-Day Weather Forecast

Advertisements
Track Severe Weather on mobile